Brownstown, MI

02:53 PM EST on February 10, 2016 (GMT -0500)
Tamarack | | Change Station
CLOSE
Current Station
Personal Weather Stations
Location: Flat Rock, MI
Elevation: 600 ft
Nearby Weather Stations

Elev 600 ft 42.09 °N, 83.28 °W | Updated 14 minutes ago

Utando wa mawingu
Utando wa mawingu
25.7 °F
Feels Like 19 °F
N
5.3
Upepo Ya mabadiliko Upepo from Magharibi-Kusini-Magharibi (MgKMg) WSW

Leo
High -- | Low -- °F
--% Chance of Precip.
Yesterday
High -- | Low -- °F
Precip. -- nchi
Shinikizo 29.83 nchi
Mwangaza 7.0 meli
Clouds Mawingu ya hapa na pale 2500 ft
Mawingu sehemu nyingi 4400 ft
Utando wa mawingu 6000 ft
Ubaridi wa upepo 19 °F
Kilele cha umande 12 °F
Unyevu 55%
Rainfall 0.00 nchi
Snow Depth Not available.
7:36 AM 5:58 PM
Waxing Crescent, 7% visible
METAR KONZ 101935Z AUTO 28008KT 7SM SCT025 BKN044 OVC060 M06/M13 A2983 RMK AO2
Shinikizo 29.83 nchi
Mwangaza 7.0 meli
Clouds Mawingu ya hapa na pale 2500 ft
Mawingu sehemu nyingi 4400 ft
Utando wa mawingu 6000 ft
Ubaridi wa upepo 19 °F
Kilele cha umande 12 °F
Unyevu 55%
Rainfall 0.00 nchi
Snow Depth Not available.
7:36 AM 5:58 PM
Waxing Crescent, 7% visible
METAR KONZ 101935Z AUTO 28008KT 7SM SCT025 BKN044 OVC060 M06/M13 A2983 RMK AO2

10-Day Weather Forecast

Almanac

Astronomy

Feb. 10, 2016 Rise Set
Actual Time
Civil Twilight
Nautical Twilight
Astronomical Twilight
Moon
Length Of Visible Light
Length of Day
Tomorrow will be .
, % of the Moon is Illuminated

Today's Extremes

State Highs State Lows

Community

WunderPhotos

Upload Photos

1,891,925 photos uploaded!

WunderBlog® & News

Nearby

Air Quality

  Air Quality AQ Index Pollutant
Not available.

Snow Depth

Station Depth Elevation

Earthquake Activity

City Distance Mag. Time & Date
Minimum magnitude displayed is 2.5.

Coastal Water Temperatures

Mahali Hali ya Hewa

Stations

Nearby Weather Stations

Station Location Temp Ubaridi wa upepo Kilele cha umande Unyevu Upepo Precip. Elev Imesharekibishwa Type
                   

Watches & Warnings

There are currently no watches in effect.